createdAt,value
2017-11-20T00:01:41.699Z,86.3
2017-11-20T00:02:40.889Z,86.4
2017-11-20T00:03:39.835Z,86.7
2017-11-20T00:04:38.661Z,86.5
2017-11-20T00:06:36.632Z,86.6
2017-11-20T00:11:31.975Z,87.2
2017-11-20T00:12:31.287Z,87.2
2017-11-20T00:14:29.081Z,87.5
2017-11-20T00:16:27.388Z,87
2017-11-20T00:17:25.981Z,87.2
2017-11-20T00:19:24.167Z,87.4
2017-11-20T00:20:23.481Z,87.2
2017-11-20T00:23:20.568Z,87.3
2017-11-20T00:24:19.263Z,87.8
2017-11-20T00:26:17.459Z,87.6
2017-11-20T00:28:15.765Z,87.6
2017-11-20T00:28:46.382Z,87.6
2017-11-20T00:29:16.773Z,87.4
2017-11-20T00:29:47.397Z,87.4
2017-11-20T00:30:18.016Z,87.2
2017-11-20T00:30:48.659Z,87.2
2017-11-20T00:32:11.618Z,87.3
2017-11-20T00:33:10.696Z,87.4
2017-11-20T00:37:07.039Z,87.8
2017-11-20T00:38:05.722Z,87.8
2017-11-20T00:41:03.189Z,87.6
2017-11-20T00:43:01.153Z,87.6
2017-11-20T00:44:00.356Z,87.8
2017-11-20T00:45:58.189Z,87.6
2017-11-20T00:46:57.592Z,87.4
2017-11-20T00:48:55.291Z,87.8
2017-11-20T00:49:54.265Z,87.2
2017-11-20T00:59:45.023Z,88.3
2017-11-20T01:00:43.704Z,88.4
2017-11-20T01:02:41.907Z,89.1
2017-11-20T01:03:40.837Z,89.6
2017-11-20T01:05:38.903Z,89.9
2017-11-20T01:10:34.121Z,90.2
2017-11-20T01:11:04.633Z,90.2
2017-11-20T01:13:31.514Z,91
2017-11-20T01:19:25.339Z,91.3
2017-11-20T01:19:55.862Z,91.3
2017-11-20T01:20:26.472Z,90.6
2017-11-20T01:20:56.711Z,90.6
2017-11-20T01:25:19.731Z,90.7
2017-11-20T01:27:17.912Z,90.2
2017-11-20T01:28:16.734Z,89.7
2017-11-20T01:31:13.818Z,88.7
2017-11-20T01:32:13.034Z,89.2
2017-11-20T01:33:11.844Z,88.9
2017-11-20T01:35:10.311Z,89.5
2017-11-20T01:36:09.233Z,89.1
2017-11-20T01:39:06.081Z,89.1
2017-11-20T01:42:03.269Z,88.9
2017-11-20T01:45:00.340Z,88.6
2017-11-20T01:45:59.153Z,88.9
2017-11-20T01:47:57.365Z,88.4
2017-11-20T01:49:55.585Z,88.1
2017-11-20T01:50:25.705Z,88.1
2017-11-20T01:50:56.433Z,88.6
2017-11-20T01:51:26.941Z,88.6
2017-11-20T01:52:52.814Z,88.4
2017-11-20T01:53:51.505Z,88.6
2017-11-20T01:57:47.626Z,88
2017-11-20T02:03:41.860Z,88
2017-11-20T02:08:37.199Z,87.9
2017-11-20T02:11:34.404Z,87.9
2017-11-20T02:12:33.313Z,88
2017-11-20T02:14:31.276Z,87.6
2017-11-20T02:17:33.428Z,87.7
2017-11-20T02:20:25.455Z,87.3
2017-11-20T02:25:20.788Z,87.3
2017-11-20T02:26:19.978Z,87.4
2017-11-20T02:28:17.658Z,87.3
2017-11-20T02:29:16.950Z,87.4
2017-11-20T02:34:12.057Z,87.8
2017-11-20T02:35:10.745Z,87.6
2017-11-20T02:37:09.037Z,87.7
2017-11-20T02:38:07.962Z,87.8
2017-11-20T02:39:07.270Z,87.6
2017-11-20T02:42:04.387Z,87.6
2017-11-20T02:44:02.560Z,87.4
2017-11-20T02:46:00.350Z,87.7
2017-11-20T02:47:58.548Z,87.2
2017-11-20T02:58:47.802Z,87
2017-11-20T03:00:58.607Z,87
2017-11-20T03:02:44.234Z,87.3
2017-11-20T03:05:41.326Z,86.9
2017-11-20T03:07:39.026Z,86.9
2017-11-20T03:10:36.218Z,86.7
2017-11-20T03:14:32.674Z,87.8
2017-11-20T03:16:30.251Z,88.5
2017-11-20T03:17:29.464Z,89
2017-11-20T03:19:27.766Z,90
2017-11-20T03:20:26.698Z,90.4
2017-11-20T03:21:25.793Z,90.2
2017-11-20T03:22:24.722Z,90.5
2017-11-20T03:23:24.049Z,91
2017-11-20T03:24:22.757Z,91
2017-11-20T03:25:21.692Z,91.3
2017-11-20T03:25:52.092Z,91.3
2017-11-20T03:26:22.723Z,92.1
2017-11-20T03:26:53.467Z,92.1
2017-11-20T03:27:23.709Z,92.1
2017-11-20T03:28:19.122Z,92.5
2017-11-20T03:30:17.335Z,92.5
2017-11-20T03:32:15.054Z,92.3
2017-11-20T03:35:12.028Z,92.4
2017-11-20T03:35:42.253Z,92.4
2017-11-20T03:36:12.760Z,92.8
2017-11-20T03:36:42.995Z,92.8
2017-11-20T03:37:13.628Z,93.1
2017-11-20T03:37:44.259Z,93.1
2017-11-20T03:39:08.254Z,93.9
2017-11-20T03:40:07.354Z,94.2
2017-11-20T03:43:04.441Z,94.6
2017-11-20T03:44:03.664Z,94.2
2017-11-20T03:45:02.472Z,94.1
2017-11-20T03:47:00.338Z,93.9
2017-11-20T03:47:59.776Z,94.3
2017-11-20T03:48:58.620Z,94
2017-11-20T03:49:57.737Z,94.1
2017-11-20T03:51:55.941Z,94
2017-11-20T03:52:54.789Z,93.7
2017-11-20T03:54:53.119Z,93.6
2017-11-20T03:56:50.812Z,93.5
2017-11-20T03:58:48.933Z,93.8
2017-11-20T03:59:48.274Z,94
2017-11-20T04:00:18.660Z,94
2017-11-20T04:01:46.276Z,94.2
2017-11-20T04:04:43.226Z,94.2
2017-11-20T04:05:42.136Z,94.1
2017-11-20T04:06:12.739Z,94.1
2017-11-20T04:07:40.339Z,93.8
2017-11-20T04:08:39.133Z,93.9
2017-11-20T04:09:38.309Z,93.6
2017-11-20T04:12:35.404Z,93.3
2017-11-20T04:13:34.319Z,93.3
2017-11-20T04:14:33.539Z,92.9
2017-11-20T04:17:30.375Z,92.7
2017-11-20T04:18:00.879Z,92.7
2017-11-20T04:18:31.600Z,93
2017-11-20T04:19:02.097Z,93
2017-11-20T04:21:26.445Z,93.5
2017-11-20T04:23:24.628Z,93.6
2017-11-20T04:24:23.926Z,92.9
2017-11-20T04:27:20.584Z,90.7
2017-11-20T04:29:18.754Z,91
2017-11-20T04:33:14.811Z,91.5
2017-11-20T04:35:13.001Z,92.2
2017-11-20T04:37:11.091Z,91.8
2017-11-20T04:39:09.388Z,91.3
2017-11-20T04:40:08.295Z,91.3
2017-11-20T04:41:07.112Z,90.7
2017-11-20T04:42:06.325Z,90.8
2017-11-20T04:44:04.021Z,90.1
2017-11-20T04:47:01.466Z,90.1
2017-11-20T04:49:58.644Z,89.4
2017-11-20T04:50:57.433Z,89.9
2017-11-20T04:58:49.817Z,88.8
2017-11-20T04:59:20.421Z,88.8
2017-11-20T05:00:48.025Z,88
2017-11-20T05:01:46.597Z,87.8
2017-11-20T05:02:46.016Z,88.3
2017-11-20T05:04:43.800Z,87.7
2017-11-20T05:05:42.873Z,88.2
2017-11-20T05:08:40.099Z,88.5
2017-11-20T05:11:37.053Z,89.1
2017-11-20T05:12:36.243Z,89.6
2017-11-20T05:16:32.192Z,89.6
2017-11-20T05:17:31.280Z,88.3
2017-11-20T05:18:30.093Z,88.8
2017-11-20T05:19:29.421Z,89.6
2017-11-20T05:20:28.341Z,89.9
2017-11-20T05:23:25.180Z,90.3
2017-11-20T05:24:24.477Z,90.2
2017-11-20T05:26:22.544Z,89.6
2017-11-20T05:27:21.337Z,89.2
2017-11-20T05:28:20.638Z,89.4
2017-11-20T05:29:19.441Z,89.7
2017-11-20T05:30:18.625Z,88.7
2017-11-20T05:31:17.425Z,88.8
2017-11-20T05:32:16.717Z,89.6
2017-11-20T05:33:15.927Z,90
2017-11-20T05:33:46.169Z,90
2017-11-20T05:34:16.556Z,89
2017-11-20T05:34:47.287Z,89
2017-11-20T05:36:12.640Z,88.6
2017-11-20T05:37:12.058Z,87
2017-11-20T05:38:10.739Z,87.5
2017-11-20T05:39:10.056Z,86.4
2017-11-20T05:40:09.114Z,87.3
2017-11-20T05:41:08.027Z,86.8
2017-11-20T05:42:06.821Z,86.8
2017-11-20T05:43:06.233Z,86.9
2017-11-20T05:44:05.026Z,86.2
2017-11-20T05:45:03.825Z,86.6
2017-11-20T05:46:03.129Z,87.3
2017-11-20T05:47:02.341Z,88
2017-11-20T05:48:01.034Z,87.1
2017-11-20T05:48:59.834Z,86.5
2017-11-20T05:49:59.014Z,86
2017-11-20T05:50:58.233Z,86.8
2017-11-20T05:51:57.019Z,87.3
2017-11-20T05:52:56.207Z,86.6
2017-11-20T05:53:55.409Z,86.1
2017-11-20T05:56:30.023Z,86.2
2017-11-20T05:58:50.355Z,86.8
2017-11-20T06:00:48.423Z,86.3
2017-11-20T06:01:47.237Z,86
2017-11-20T06:02:46.426Z,86.3
2017-11-20T06:03:45.616Z,85.5
2017-11-20T06:04:44.318Z,85.8
2017-11-20T06:05:43.525Z,86
2017-11-20T06:06:42.836Z,86.2
2017-11-20T06:07:41.757Z,86.6
2017-11-20T06:08:40.686Z,86.8
2017-11-20T06:09:39.883Z,86.8
2017-11-20T06:10:38.570Z,87
2017-11-20T06:11:38.000Z,86.7
2017-11-20T06:12:36.581Z,86.9
2017-11-20T06:13:07.196Z,86.9
2017-11-20T06:14:34.702Z,87.2
2017-11-20T06:15:05.211Z,87.2
2017-11-20T06:15:35.845Z,87.4
2017-11-20T06:16:06.243Z,87.4
2017-11-20T06:16:36.971Z,87.3
2017-11-20T06:17:08.035Z,87.3
2017-11-20T06:18:31.105Z,87.6
2017-11-20T06:19:29.837Z,87
2017-11-20T06:20:29.049Z,87.1
2017-11-20T06:21:28.254Z,87.3
2017-11-20T06:23:26.069Z,86.7
2017-11-20T06:24:25.315Z,86.9
2017-11-20T06:25:24.858Z,87
2017-11-20T06:25:55.307Z,87
2017-11-20T06:26:25.710Z,86.6
2017-11-20T06:26:56.022Z,86.6
2017-11-20T06:28:21.107Z,87.1
2017-11-20T06:30:19.185Z,87.1
2017-11-20T06:31:18.520Z,86.5
2017-11-20T06:32:17.227Z,86.9
2017-11-20T06:34:15.309Z,87.1
2017-11-20T06:35:14.284Z,87.6
2017-11-20T06:36:13.216Z,87.6
2017-11-20T06:37:12.406Z,87.2
2017-11-20T06:38:11.326Z,87.5
2017-11-20T06:39:11.437Z,87.4
2017-11-20T06:40:09.772Z,87.5
2017-11-20T06:41:08.578Z,87.3
2017-11-20T06:42:07.399Z,87
2017-11-20T06:43:06.714Z,86.9
2017-11-20T06:44:05.627Z,87.7
2017-11-20T06:45:04.560Z,87.4
2017-11-20T06:46:03.668Z,87.8
2017-11-20T06:47:02.907Z,87.8
2017-11-20T06:48:01.494Z,87.3
2017-11-20T06:49:00.804Z,88
2017-11-20T06:49:59.725Z,87.9
2017-11-20T06:50:58.615Z,87.9
2017-11-20T06:51:57.638Z,87.8
2017-11-20T06:52:56.991Z,88
2017-11-20T06:54:54.816Z,88.2
2017-11-20T06:55:54.114Z,87.7
2017-11-20T06:57:51.796Z,88.1
2017-11-20T06:58:51.207Z,88.7
2017-11-20T06:59:50.017Z,88.5
2017-11-20T07:00:48.924Z,88.2
2017-11-20T07:01:48.021Z,88.1
2017-11-20T07:02:47.114Z,87.8
2017-11-20T07:03:46.338Z,88
2017-11-20T07:04:45.289Z,87.6
2017-11-20T07:05:15.798Z,87.6
2017-11-20T07:05:47.104Z,87.5
2017-11-20T07:06:17.132Z,87.5
2017-11-20T07:07:42.149Z,87.8
2017-11-20T07:08:41.082Z,88.4
2017-11-20T07:09:40.017Z,88.1
2017-11-20T07:12:23.198Z,88.2
2017-11-20T07:14:35.508Z,88.5
2017-11-20T07:15:34.097Z,88.3
2017-11-20T07:16:33.311Z,87.7
2017-11-20T07:19:30.397Z,88.2
2017-11-20T07:20:29.318Z,88.3
2017-11-20T07:21:28.667Z,88.4
2017-11-20T07:23:26.759Z,88
2017-11-20T07:24:25.603Z,88.2
2017-11-20T07:25:24.802Z,88.4
2017-11-20T07:28:21.405Z,88.4
2017-11-20T07:29:20.585Z,88.5
2017-11-20T07:30:19.500Z,88.6
2017-11-20T07:31:18.821Z,88.4
2017-11-20T07:32:17.534Z,88.4
2017-11-20T07:33:16.743Z,88.6
2017-11-20T07:34:15.563Z,88.8
2017-11-20T07:35:14.782Z,88.6
2017-11-20T07:37:12.594Z,88.6
2017-11-20T07:38:11.908Z,88.5
2017-11-20T07:39:11.009Z,88.5
2017-11-20T07:40:09.832Z,88.4
2017-11-20T07:41:09.152Z,88.4
2017-11-20T07:42:07.742Z,89
2017-11-20T07:43:07.090Z,89
2017-11-20T07:44:06.201Z,88.9
2017-11-20T07:45:05.135Z,88.9
2017-11-20T07:46:03.837Z,89.3
2017-11-20T07:46:34.130Z,89.3
2017-11-20T07:47:04.684Z,89.2
2017-11-20T07:48:01.802Z,89.4
2017-11-20T07:49:00.906Z,89.4
2017-11-20T07:50:00.005Z,89.3
2017-11-20T07:50:59.350Z,89.4
2017-11-20T07:51:29.749Z,89.4
2017-11-20T07:52:00.387Z,89.5
2017-11-20T07:52:56.969Z,89.4
2017-11-20T07:53:56.186Z,89.6
2017-11-20T07:54:55.105Z,89.8
2017-11-20T07:55:54.432Z,89.8
2017-11-20T07:56:53.028Z,89.7
2017-11-20T07:57:52.116Z,90.1
2017-11-20T07:58:51.321Z,90.7
2017-11-20T07:59:50.521Z,90.3
2017-11-20T08:00:49.622Z,90.6
2017-11-20T08:01:20.040Z,90.6
2017-11-20T08:01:50.442Z,90.5
2017-11-20T08:02:20.866Z,90.5
2017-11-20T08:02:51.547Z,90.3
2017-11-20T08:03:46.228Z,90.5
2017-11-20T08:04:45.589Z,90.6
2017-11-20T08:06:43.352Z,90.5
2017-11-20T08:07:42.566Z,90.6
2017-11-20T08:08:41.669Z,90.5
2017-11-20T08:09:40.765Z,90.4
2017-11-20T08:10:39.481Z,90.4
2017-11-20T08:11:38.463Z,90.5
2017-11-20T08:12:37.672Z,90.7
2017-11-20T08:13:36.609Z,90.3
2017-11-20T08:14:35.532Z,90.6
2017-11-20T08:15:34.760Z,90.6
2017-11-20T08:16:33.804Z,90.7
2017-11-20T08:17:32.528Z,90
2017-11-20T08:18:31.626Z,90.6
2017-11-20T08:19:30.942Z,90.7
2017-11-20T08:20:29.766Z,90.7
2017-11-20T08:21:28.871Z,90.5
2017-11-20T08:22:28.195Z,90.8
2017-11-20T08:23:26.954Z,91.2
2017-11-20T08:24:25.765Z,90.8
2017-11-20T08:25:25.200Z,91.6
2017-11-20T08:26:24.084Z,91.7
2017-11-20T08:27:22.909Z,91.5
2017-11-20T08:28:22.240Z,91.8
2017-11-20T08:29:21.118Z,92
2017-11-20T08:30:19.818Z,91.4
2017-11-20T08:30:50.337Z,91.4
2017-11-20T08:32:18.352Z,91.7
2017-11-20T08:34:47.240Z,92.4
2017-11-20T08:36:14.228Z,91.6
2017-11-20T08:37:13.554Z,91.9
2017-11-20T08:38:12.362Z,92.1
2017-11-20T08:39:11.454Z,91.8
2017-11-20T08:41:09.313Z,91.7
2017-11-20T08:42:12.019Z,91.7
2017-11-20T08:42:42.643Z,91.7
2017-11-20T08:43:12.930Z,92
2017-11-20T08:43:43.543Z,92
2017-11-20T08:45:05.412Z,92
2017-11-20T08:46:04.353Z,92.2
2017-11-20T08:50:21.176Z,92.3
2017-11-20T08:52:52.966Z,92.7
2017-11-20T08:53:56.704Z,92.5
2017-11-20T08:54:55.902Z,92.3
2017-11-20T08:55:54.702Z,92.7
2017-11-20T08:56:53.901Z,92.8
2017-11-20T08:57:52.698Z,92.9
2017-11-20T08:58:51.998Z,92.9
2017-11-20T08:59:51.073Z,92.7
2017-11-20T09:00:50.168Z,92.6
2017-11-20T09:01:48.978Z,92.7
2017-11-20T09:02:47.886Z,92.9
2017-11-20T09:03:47.299Z,93
2017-11-20T09:04:45.883Z,93
2017-11-20T09:05:45.300Z,93.2
2017-11-20T09:06:43.989Z,93.1
2017-11-20T09:07:42.910Z,92.9
2017-11-20T09:08:42.324Z,93.1
2017-11-20T09:09:41.114Z,92.8
2017-11-20T09:10:40.427Z,92.8
2017-11-20T09:11:39.133Z,92.7
2017-11-20T09:12:38.050Z,92.8
2017-11-20T09:13:37.462Z,92.9
2017-11-20T09:14:36.376Z,92.8
2017-11-20T09:15:35.178Z,92.9
2017-11-20T09:16:34.498Z,93.2
2017-11-20T09:17:33.705Z,93
2017-11-20T09:18:32.512Z,92.3
2017-11-20T09:19:31.321Z,92.4
2017-11-20T09:20:30.742Z,92.3
2017-11-20T09:21:01.006Z,92.3
2017-11-20T09:21:31.260Z,92.4
2017-11-20T09:22:01.517Z,92.4
2017-11-20T09:22:31.920Z,92.6
2017-11-20T09:23:02.537Z,92.6
2017-11-20T09:23:33.048Z,92.6
2017-11-20T09:24:03.172Z,92.6
2017-11-20T09:25:25.512Z,92.6
2017-11-20T09:26:24.808Z,93
2017-11-20T09:27:23.610Z,93.1
2017-11-20T09:28:23.025Z,92
2017-11-20T09:29:21.952Z,92
2017-11-20T09:30:20.771Z,91.8
2017-11-20T09:31:19.969Z,92
2017-11-20T09:31:50.087Z,92
2017-11-20T09:32:20.608Z,92.3
2017-11-20T09:32:50.999Z,92.3
2017-11-20T09:34:17.085Z,92
2017-11-20T09:35:15.927Z,92.1
2017-11-20T09:37:14.134Z,92.3
2017-11-20T09:38:12.934Z,91.8
2017-11-20T09:39:12.159Z,91.9
2017-11-20T09:40:10.969Z,92.2
2017-11-20T09:41:10.382Z,92.2
2017-11-20T09:42:08.989Z,92.4
2017-11-20T09:43:08.284Z,92.6
2017-11-20T09:44:07.202Z,91.8
2017-11-20T09:45:05.999Z,92
2017-11-20T09:46:05.208Z,92.2
2017-11-20T09:47:04.407Z,92.3
2017-11-20T09:48:03.231Z,92.5
2017-11-20T09:49:02.659Z,92.1
2017-11-20T09:50:01.466Z,91.8
2017-11-20T09:51:00.265Z,92
2017-11-20T09:51:59.481Z,91.4
2017-11-20T09:52:58.433Z,91.7
2017-11-20T09:53:57.524Z,92.2
2017-11-20T09:54:56.841Z,91.7
2017-11-20T09:55:55.663Z,92.1
2017-11-20T09:56:54.868Z,92.4
2017-11-20T09:57:53.843Z,92.2
2017-11-20T09:58:52.752Z,92
2017-11-20T09:59:51.851Z,92.6
2017-11-20T10:00:50.935Z,92.5
2017-11-20T10:01:49.848Z,92.7
2017-11-20T10:02:48.753Z,92.8
2017-11-20T10:03:19.373Z,92.8
2017-11-20T10:04:46.988Z,93.2
2017-11-20T10:05:46.079Z,93.1
2017-11-20T10:06:44.994Z,93.3
2017-11-20T10:07:43.799Z,93.6
2017-11-20T10:08:43.098Z,94
2017-11-20T10:09:42.020Z,94.2
2017-11-20T10:10:40.833Z,94.2
2017-11-20T10:11:40.141Z,94.2
2017-11-20T10:12:39.336Z,94.5
2017-11-20T10:13:38.411Z,94.7
2017-11-20T10:14:09.033Z,94.7
2017-11-20T10:14:39.543Z,93.8
2017-11-20T10:15:36.335Z,94.2
2017-11-20T10:16:35.620Z,94.3
2017-11-20T10:18:33.313Z,94.2
2017-11-20T10:19:32.617Z,94.2
2017-11-20T10:20:31.316Z,93.6
2017-11-20T10:21:30.726Z,93
2017-11-20T10:22:29.448Z,93.6
2017-11-20T10:23:28.652Z,93.6
2017-11-20T10:24:27.344Z,93.6
2017-11-20T10:25:26.655Z,93.9
2017-11-20T10:26:25.851Z,93.8
2017-11-20T10:27:24.566Z,93.7
2017-11-20T10:28:23.765Z,93.1
2017-11-20T10:29:23.078Z,92.9
2017-11-20T10:30:21.659Z,92.7
2017-11-20T10:32:19.965Z,91.6
2017-11-20T10:33:18.654Z,91.2
2017-11-20T10:34:17.857Z,91.6
2017-11-20T10:35:17.047Z,91.3
2017-11-20T10:36:16.346Z,91.4
2017-11-20T10:37:15.167Z,91.5
2017-11-20T10:38:14.095Z,91.1
2017-11-20T10:39:13.402Z,90.9
2017-11-20T10:40:12.092Z,90.8
2017-11-20T10:41:11.290Z,90.8
2017-11-20T10:42:10.202Z,91
2017-11-20T10:43:09.519Z,91.1
2017-11-20T10:44:08.434Z,91.8
2017-11-20T10:45:07.648Z,92.1
2017-11-20T10:46:06.573Z,91.2
2017-11-20T10:47:05.278Z,91
2017-11-20T10:48:04.689Z,91.1
2017-11-20T10:49:03.496Z,91.4
2017-11-20T10:50:02.688Z,90.8
2017-11-20T10:51:01.521Z,90.8
2017-11-20T10:52:00.831Z,91.2
2017-11-20T10:52:59.520Z,91.5
2017-11-20T10:53:58.471Z,91.8
2017-11-20T10:54:57.771Z,91
2017-11-20T10:55:56.960Z,91
2017-11-20T10:56:55.899Z,91.4
2017-11-20T10:57:54.731Z,91.7
2017-11-20T10:58:25.149Z,91.7
2017-11-20T10:58:55.555Z,91.9
2017-11-20T10:59:52.968Z,92
2017-11-20T11:00:52.171Z,90.6
2017-11-20T11:01:51.081Z,91.2
2017-11-20T11:02:49.876Z,91.3
2017-11-20T11:03:49.184Z,90.9
2017-11-20T11:04:48.094Z,90.8
2017-11-20T11:05:46.901Z,90.7
2017-11-20T11:06:46.209Z,91.2
2017-11-20T11:07:45.401Z,90.2
2017-11-20T11:08:44.200Z,90.3
2017-11-20T11:09:43.522Z,90.5
2017-11-20T11:10:42.316Z,90.9
2017-11-20T11:11:41.616Z,90.2
2017-11-20T11:12:40.528Z,90.2
2017-11-20T11:13:39.336Z,90.3
2017-11-20T11:14:38.665Z,89.9
2017-11-20T11:15:37.752Z,90.2
2017-11-20T11:16:36.450Z,90.2
2017-11-20T11:17:35.867Z,90.5
2017-11-20T11:18:34.556Z,90.4
2017-11-20T11:19:33.863Z,89.2
2017-11-20T11:20:32.795Z,89.6
2017-11-20T11:21:32.107Z,88.4
2017-11-20T11:22:30.911Z,88.6
2017-11-20T11:23:29.721Z,88.7
2017-11-20T11:24:28.919Z,88.5
2017-11-20T11:25:28.007Z,89.1
2017-11-20T11:26:27.192Z,89.1
2017-11-20T11:27:26.097Z,88.7
2017-11-20T11:28:25.289Z,88.6
2017-11-20T11:29:24.212Z,88.2
2017-11-20T11:30:23.023Z,88.2
2017-11-20T11:31:22.439Z,87.8
2017-11-20T11:32:21.128Z,88.8
2017-11-20T11:33:20.348Z,88.3
2017-11-20T11:34:19.143Z,88.9
2017-11-20T11:35:18.564Z,89.1
2017-11-20T11:36:17.538Z,89.4
2017-11-20T11:37:16.329Z,89.2
2017-11-20T11:37:46.567Z,89.2
2017-11-20T11:38:16.864Z,88.7
2017-11-20T11:38:47.477Z,88.7
2017-11-20T11:39:18.537Z,88.9
2017-11-20T11:39:48.032Z,88.9
2017-11-20T11:40:18.427Z,88.3
2017-11-20T11:41:14.015Z,87.6
2017-11-20T11:42:11.835Z,87.2
2017-11-20T11:43:10.756Z,87.8
2017-11-20T11:44:09.597Z,88.4
2017-11-20T11:45:08.898Z,88.3
2017-11-20T11:46:07.816Z,87.1
2017-11-20T11:47:06.718Z,86.9
2017-11-20T11:49:04.894Z,87.3
2017-11-20T11:50:04.011Z,86.8
2017-11-20T11:51:02.807Z,86.7
2017-11-20T11:52:02.014Z,86
2017-11-20T11:53:01.343Z,85.6
2017-11-20T11:54:00.139Z,86.3
2017-11-20T11:54:59.054Z,86.2
2017-11-20T11:55:58.352Z,86.3
2017-11-20T11:56:57.433Z,86.4
2017-11-20T11:57:56.224Z,86.3
2017-11-20T11:58:55.409Z,86
2017-11-20T11:59:54.214Z,85.9
2017-11-20T12:00:53.531Z,86.1
2017-11-20T12:01:52.432Z,86.1
2017-11-20T12:02:51.630Z,85.4
2017-11-20T12:03:50.329Z,85.7
2017-11-20T12:04:49.638Z,85.7
2017-11-20T12:05:48.442Z,86.1
2017-11-20T12:06:47.854Z,85.2
2017-11-20T12:07:46.784Z,85.6
2017-11-20T12:08:45.699Z,85.8
2017-11-20T12:09:44.519Z,85.4
2017-11-20T12:10:43.720Z,85.8
2017-11-20T12:11:43.022Z,85.2
2017-11-20T12:12:13.641Z,85.2
2017-11-20T12:12:44.149Z,84.1
2017-11-20T12:13:41.060Z,84.5
2017-11-20T12:14:39.756Z,85
2017-11-20T12:15:38.956Z,85.4
2017-11-20T12:16:38.265Z,84.9
2017-11-20T12:17:37.174Z,84.9
2017-11-20T12:19:35.368Z,84.8
2017-11-20T12:20:34.193Z,84.4
2017-11-20T12:21:33.393Z,84.7
2017-11-20T12:22:32.204Z,85
2017-11-20T12:23:31.406Z,84.8
2017-11-20T12:24:30.305Z,84.3
2017-11-20T12:26:28.619Z,82.7
2017-11-20T12:27:27.434Z,82.8
2017-11-20T12:28:26.628Z,83.2
2017-11-20T12:29:25.724Z,83.1
2017-11-20T12:30:24.527Z,81.3
2017-11-20T12:30:54.753Z,81.3
2017-11-20T12:32:22.629Z,82.5
2017-11-20T12:34:20.722Z,81.6
2017-11-20T12:35:20.151Z,81.9
2017-11-20T12:36:19.075Z,81.4
2017-11-20T12:37:17.867Z,81.7
2017-11-20T12:38:17.180Z,81.2
2017-11-20T12:39:15.979Z,81.2
2017-11-20T12:40:15.284Z,81.8
2017-11-20T12:41:14.101Z,81.6
2017-11-20T12:42:13.298Z,80.6
2017-11-20T12:43:12.219Z,80.6
2017-11-20T12:44:11.139Z,80.8
2017-11-20T12:45:10.439Z,80.4
2017-11-20T12:47:08.648Z,80.5
2017-11-20T12:48:07.669Z,80.6
2017-11-20T12:49:06.835Z,79.5
2017-11-20T12:50:05.747Z,80.2
2017-11-20T12:51:04.944Z,80.1
2017-11-20T12:52:03.933Z,81
2017-11-20T12:53:02.625Z,80.1
2017-11-20T12:54:01.828Z,80.1
2017-11-20T12:55:00.633Z,80.1
2017-11-20T12:56:00.060Z,80
2017-11-20T12:56:58.748Z,80.2
2017-11-20T12:57:57.941Z,79.8
2017-11-20T12:59:56.126Z,80.2
2017-11-20T13:00:55.034Z,80.1
2017-11-20T13:01:54.238Z,80.4
2017-11-20T13:02:53.161Z,80.5
2017-11-20T13:03:51.965Z,79.3
2017-11-20T13:04:51.160Z,79.9
2017-11-20T13:05:50.874Z,79.6
2017-11-20T13:06:21.161Z,79.6
2017-11-20T13:06:51.676Z,80.3
2017-11-20T13:07:21.906Z,80.3
2017-11-20T13:08:47.501Z,80.3
2017-11-20T13:09:46.693Z,79.8
2017-11-20T13:10:45.531Z,80
2017-11-20T13:12:43.718Z,81.4
2017-11-20T13:13:42.627Z,80.5
2017-11-20T13:14:41.961Z,80.7
2017-11-20T13:15:41.052Z,81.3
2017-11-20T13:16:39.996Z,80.6
2017-11-20T13:17:38.910Z,81
2017-11-20T13:18:38.100Z,80.4
2017-11-20T13:19:36.925Z,81.3
2017-11-20T13:21:35.117Z,81.6
2017-11-20T13:22:33.913Z,81.1
2017-11-20T13:23:33.320Z,81.7
2017-11-20T13:24:32.119Z,81.7
2017-11-20T13:25:31.535Z,81.9
2017-11-20T13:26:30.450Z,81
2017-11-20T13:27:29.249Z,82.1
2017-11-20T13:29:27.536Z,81.4
2017-11-20T13:30:26.335Z,81.6
2017-11-20T13:31:25.647Z,80.5
2017-11-20T13:32:24.451Z,81.3
2017-11-20T13:33:23.675Z,81.4
2017-11-20T13:34:22.589Z,81.2
2017-11-20T13:35:21.392Z,80.9
2017-11-20T13:36:20.579Z,80.6
2017-11-20T13:37:19.777Z,80
2017-11-20T13:38:19.101Z,80.3
2017-11-20T13:39:17.797Z,80.4
2017-11-20T13:41:15.868Z,80.8
2017-11-20T13:42:15.333Z,81.5
2017-11-20T13:43:13.920Z,81.9
2017-11-20T13:44:13.242Z,81.4
2017-11-20T13:45:12.337Z,81.6
2017-11-20T13:46:11.239Z,81.8
2017-11-20T13:46:41.629Z,81.8
2017-11-20T13:47:12.138Z,82
2017-11-20T13:47:42.537Z,82
2017-11-20T13:48:13.200Z,82
2017-11-20T13:48:43.424Z,82
2017-11-20T13:49:14.041Z,81.6
2017-11-20T13:49:44.285Z,81.6
2017-11-20T13:51:06.639Z,82.4
2017-11-20T13:52:05.567Z,82.1
2017-11-20T13:53:04.425Z,81.9
2017-11-20T13:54:03.625Z,82.6
2017-11-20T13:55:02.445Z,82.7
2017-11-20T13:56:01.639Z,81.9
2017-11-20T13:57:00.952Z,82.1
2017-11-20T13:57:59.866Z,82.5
2017-11-20T13:58:58.673Z,82.9
2017-11-20T13:59:57.652Z,83.2
2017-11-20T14:00:28.393Z,83.2
2017-11-20T14:00:58.524Z,84
2017-11-20T14:01:56.111Z,83.6
2017-11-20T14:02:54.929Z,83.4
2017-11-20T14:03:53.852Z,83.5
2017-11-20T14:04:53.269Z,84.2
2017-11-20T14:05:52.220Z,83.8
2017-11-20T14:06:51.163Z,83.9
2017-11-20T14:07:50.367Z,83.5
2017-11-20T14:08:49.170Z,83.7
2017-11-20T14:09:48.484Z,84.8
2017-11-20T14:10:47.175Z,84.7
2017-11-20T14:11:46.479Z,85
2017-11-20T14:12:45.173Z,84.9
2017-11-20T14:13:44.267Z,84.3
2017-11-20T14:14:43.220Z,84.6
2017-11-20T14:15:42.526Z,84.8
2017-11-20T14:17:40.717Z,85
2017-11-20T14:18:39.415Z,85.4
2017-11-20T14:20:37.717Z,85.6
2017-11-20T14:21:36.638Z,85.9
2017-11-20T14:22:35.602Z,85.4
2017-11-20T14:23:34.650Z,86.1
2017-11-20T14:24:33.982Z,86.4
2017-11-20T14:25:32.675Z,86.4
2017-11-20T14:26:32.104Z,87
2017-11-20T14:27:31.022Z,86.8
2017-11-20T14:28:01.242Z,86.8
2017-11-20T14:28:31.769Z,86
2017-11-20T14:29:28.967Z,87
2017-11-20T14:29:59.595Z,87
2017-11-20T14:30:30.101Z,86.2
2017-11-20T14:31:26.787Z,87.1
2017-11-20T14:32:26.201Z,86.8
2017-11-20T14:33:24.998Z,87.3
2017-11-20T14:34:24.405Z,87.2
2017-11-20T14:35:23.213Z,87.6
2017-11-20T14:36:22.123Z,88.1
2017-11-20T14:37:21.554Z,87.3
2017-11-20T14:38:20.137Z,86.8
2017-11-20T14:39:19.366Z,87.4
2017-11-20T14:40:18.564Z,87.4
2017-11-20T14:41:17.367Z,87.1
2017-11-20T14:42:16.572Z,86.9
2017-11-20T14:43:15.475Z,86.1
2017-11-20T14:44:14.679Z,87.1
2017-11-20T14:45:13.491Z,86.9
2017-11-20T14:46:12.683Z,87.3
2017-11-20T14:47:11.900Z,87.1
2017-11-20T14:48:10.829Z,86.5
2017-11-20T14:49:09.636Z,86.6
2017-11-20T14:50:08.968Z,86.3
2017-11-20T14:51:07.795Z,87.3
2017-11-20T14:52:06.719Z,87
2017-11-20T14:53:05.808Z,87
2017-11-20T14:54:04.896Z,86.3
2017-11-20T14:55:03.967Z,86.7
2017-11-20T14:56:03.153Z,86.9
2017-11-20T14:57:02.127Z,86.9
2017-11-20T14:58:00.947Z,86.9
2017-11-20T14:59:00.265Z,87.1
2017-11-20T14:59:59.059Z,87.4
2017-11-20T15:00:57.863Z,87.6
2017-11-20T15:01:57.175Z,88.2
2017-11-20T15:02:56.247Z,87.9
2017-11-20T15:03:55.061Z,88.1
2017-11-20T15:04:54.264Z,88.2
2017-11-20T15:05:53.080Z,88.2
2017-11-20T15:06:52.396Z,87.8
2017-11-20T15:07:51.199Z,86.8
2017-11-20T15:08:50.287Z,87.4
2017-11-20T15:09:49.097Z,87.9
2017-11-20T15:10:48.508Z,88
2017-11-20T15:11:47.313Z,87.7
2017-11-20T15:12:46.505Z,88
2017-11-20T15:13:45.199Z,87.8
2017-11-20T15:14:44.507Z,88
2017-11-20T15:15:43.424Z,87.9
2017-11-20T15:16:42.738Z,87.8
2017-11-20T15:17:41.435Z,87.6
2017-11-20T15:18:40.354Z,87.7
2017-11-20T15:19:39.545Z,87.5
2017-11-20T15:20:38.350Z,87.6
2017-11-20T15:21:37.539Z,87.2
2017-11-20T15:22:36.844Z,87.6
2017-11-20T15:24:34.543Z,87.8
2017-11-20T15:25:05.169Z,87.8
2017-11-20T15:25:35.453Z,88
2017-11-20T15:26:32.625Z,87.9
2017-11-20T15:27:31.706Z,87.5
2017-11-20T15:28:31.025Z,88
2017-11-20T15:29:29.826Z,87.8
2017-11-20T15:30:28.665Z,87.9
2017-11-20T15:31:27.864Z,88
2017-11-20T15:32:27.178Z,87.5
2017-11-20T15:33:25.975Z,87.9
2017-11-20T15:33:56.489Z,87.9
2017-11-20T15:35:23.979Z,88.3
2017-11-20T15:37:22.169Z,88.5
2017-11-20T15:39:19.846Z,89.4
2017-11-20T15:40:18.800Z,89.5
2017-11-20T15:41:18.105Z,89.4
2017-11-20T15:42:16.920Z,89.6
2017-11-20T15:43:16.230Z,89.5
2017-11-20T15:44:15.030Z,89.8
2017-11-20T15:45:14.233Z,89.4
2017-11-20T15:46:13.174Z,89.6
2017-11-20T15:47:12.095Z,89.8
2017-11-20T15:49:10.424Z,90.1
2017-11-20T15:50:09.344Z,90.2
2017-11-20T15:51:08.254Z,89.8
2017-11-20T15:52:07.163Z,89.6
2017-11-20T15:53:06.474Z,89.9
2017-11-20T15:55:04.339Z,89.6
2017-11-20T15:57:02.535Z,90.2
2017-11-20T15:58:01.469Z,90.3
2017-11-20T15:59:00.267Z,90.2
2017-11-20T15:59:59.585Z,90.1
2017-11-20T16:01:57.775Z,90.2
2017-11-20T16:02:56.470Z,90.2
2017-11-20T16:03:27.197Z,90.2
2017-11-20T16:03:57.590Z,89.7